sensor_id;sensor_type;location;lat;lon;timestamp;P1;durP1;ratioP1;P2;durP2;ratioP2
47519;SDS011;33252;48.122;11.538;2022-08-30T00:00:07;16.95;;;11.75;;
47519;SDS011;33252;48.122;11.538;2022-08-30T00:02:53;13.77;;;11.93;;
47519;SDS011;33252;48.122;11.538;2022-08-30T00:05:19;13.80;;;10.90;;
47519;SDS011;33252;48.122;11.538;2022-08-30T00:07:45;14.05;;;11.45;;
47519;SDS011;33252;48.122;11.538;2022-08-30T00:10:10;16.48;;;11.80;;
47519;SDS011;33252;48.122;11.538;2022-08-30T00:12:36;14.63;;;11.43;;
47519;SDS011;33252;48.122;11.538;2022-08-30T00:15:03;15.45;;;11.32;;
47519;SDS011;33252;48.122;11.538;2022-08-30T00:17:31;13.82;;;11.32;;
47519;SDS011;33252;48.122;11.538;2022-08-30T00:19:56;12.80;;;11.43;;
47519;SDS011;33252;48.122;11.538;2022-08-30T00:22:22;19.02;;;13.10;;
47519;SDS011;33252;48.122;11.538;2022-08-30T00:24:48;14.82;;;12.25;;
47519;SDS011;33252;48.122;11.538;2022-08-30T00:27:14;13.73;;;11.63;;
47519;SDS011;33252;48.122;11.538;2022-08-30T00:29:40;12.60;;;10.95;;
47519;SDS011;33252;48.122;11.538;2022-08-30T00:32:06;14.35;;;11.38;;
47519;SDS011;33252;48.122;11.538;2022-08-30T00:34:32;15.48;;;12.13;;
47519;SDS011;33252;48.122;11.538;2022-08-30T00:36:58;16.77;;;11.63;;
47519;SDS011;33252;48.122;11.538;2022-08-30T00:39:27;15.75;;;10.18;;
47519;SDS011;33252;48.122;11.538;2022-08-30T00:41:53;16.02;;;12.73;;
47519;SDS011;33252;48.122;11.538;2022-08-30T00:44:18;16.20;;;12.02;;
47519;SDS011;33252;48.122;11.538;2022-08-30T00:46:44;12.57;;;11.15;;
47519;SDS011;33252;48.122;11.538;2022-08-30T00:49:10;16.13;;;11.25;;
47519;SDS011;33252;48.122;11.538;2022-08-30T00:51:36;14.43;;;10.60;;
47519;SDS011;33252;48.122;11.538;2022-08-30T00:54:04;13.85;;;11.32;;
47519;SDS011;33252;48.122;11.538;2022-08-30T00:56:30;14.88;;;11.52;;
47519;SDS011;33252;48.122;11.538;2022-08-30T00:58:58;12.55;;;10.57;;
47519;SDS011;33252;48.122;11.538;2022-08-30T01:01:26;16.83;;;11.15;;
47519;SDS011;33252;48.122;11.538;2022-08-30T01:03:53;12.90;;;10.52;;
47519;SDS011;33252;48.122;11.538;2022-08-30T01:06:19;14.90;;;10.70;;
47519;SDS011;33252;48.122;11.538;2022-08-30T01:08:46;13.98;;;11.57;;
47519;SDS011;33252;48.122;11.538;2022-08-30T01:11:13;11.80;;;10.57;;
47519;SDS011;33252;48.122;11.538;2022-08-30T01:13:41;11.70;;;9.45;;
47519;SDS011;33252;48.122;11.538;2022-08-30T01:16:07;11.75;;;9.88;;
47519;SDS011;33252;48.122;11.538;2022-08-30T01:18:33;15.65;;;11.88;;
47519;SDS011;33252;48.122;11.538;2022-08-30T01:21:20;14.10;;;11.55;;
47519;SDS011;33252;48.122;11.538;2022-08-30T01:23:54;12.23;;;10.73;;
47519;SDS011;33252;48.122;11.538;2022-08-30T01:26:22;14.77;;;11.65;;
47519;SDS011;33252;48.122;11.538;2022-08-30T01:28:49;15.25;;;11.38;;
47519;SDS011;33252;48.122;11.538;2022-08-30T01:31:18;13.00;;;10.65;;
47519;SDS011;33252;48.122;11.538;2022-08-30T01:33:44;14.90;;;12.30;;
47519;SDS011;33252;48.122;11.538;2022-08-30T01:36:11;14.55;;;12.50;;
47519;SDS011;33252;48.122;11.538;2022-08-30T01:41:19;18.73;;;12.88;;
47519;SDS011;33252;48.122;11.538;2022-08-30T01:43:53;13.07;;;10.95;;
47519;SDS011;33252;48.122;11.538;2022-08-30T01:46:21;14.68;;;12.75;;
47519;SDS011;33252;48.122;11.538;2022-08-30T01:48:55;13.05;;;11.73;;
47519;SDS011;33252;48.122;11.538;2022-08-30T01:51:23;16.02;;;14.05;;
47519;SDS011;33252;48.122;11.538;2022-08-30T01:53:51;15.55;;;13.70;;
47519;SDS011;33252;48.122;11.538;2022-08-30T01:56:17;19.20;;;17.25;;
47519;SDS011;33252;48.122;11.538;2022-08-30T01:58:43;63.00;;;59.97;;
47519;SDS011;33252;48.122;11.538;2022-08-30T02:01:10;22.05;;;19.90;;
47519;SDS011;33252;48.122;11.538;2022-08-30T02:03:38;21.83;;;20.02;;
47519;SDS011;33252;48.122;11.538;2022-08-30T02:06:06;23.05;;;21.02;;
47519;SDS011;33252;48.122;11.538;2022-08-30T02:08:34;27.95;;;25.55;;
47519;SDS011;33252;48.122;11.538;2022-08-30T02:11:00;23.42;;;21.63;;
47519;SDS011;33252;48.122;11.538;2022-08-30T02:13:27;24.23;;;22.42;;
47519;SDS011;33252;48.122;11.538;2022-08-30T02:15:54;17.45;;;15.73;;
47519;SDS011;33252;48.122;11.538;2022-08-30T02:18:21;18.67;;;17.13;;
47519;SDS011;33252;48.122;11.538;2022-08-30T02:20:48;17.70;;;16.00;;
47519;SDS011;33252;48.122;11.538;2022-08-30T02:23:14;31.80;;;29.70;;
47519;SDS011;33252;48.122;11.538;2022-08-30T02:25:40;15.32;;;13.82;;
47519;SDS011;33252;48.122;11.538;2022-08-30T02:28:06;17.70;;;16.15;;
47519;SDS011;33252;48.122;11.538;2022-08-30T02:30:32;22.73;;;21.02;;
47519;SDS011;33252;48.122;11.538;2022-08-30T02:32:58;16.52;;;14.85;;
47519;SDS011;33252;48.122;11.538;2022-08-30T02:35:24;28.80;;;26.75;;
47519;SDS011;33252;48.122;11.538;2022-08-30T02:37:50;21.90;;;20.00;;
47519;SDS011;33252;48.122;11.538;2022-08-30T02:40:16;13.82;;;12.43;;
47519;SDS011;33252;48.122;11.538;2022-08-30T02:42:43;17.08;;;13.15;;
47519;SDS011;33252;48.122;11.538;2022-08-30T02:45:09;15.13;;;12.60;;
47519;SDS011;33252;48.122;11.538;2022-08-30T02:47:35;15.50;;;13.98;;
47519;SDS011;33252;48.122;11.538;2022-08-30T02:50:02;14.60;;;13.10;;
47519;SDS011;33252;48.122;11.538;2022-08-30T02:52:30;31.15;;;29.05;;
47519;SDS011;33252;48.122;11.538;2022-08-30T02:54:56;65.22;;;62.15;;
47519;SDS011;33252;48.122;11.538;2022-08-30T02:57:21;84.80;;;81.15;;
47519;SDS011;33252;48.122;11.538;2022-08-30T02:59:47;107.80;;;103.55;;
47519;SDS011;33252;48.122;11.538;2022-08-30T03:02:13;117.50;;;112.60;;
47519;SDS011;33252;48.122;11.538;2022-08-30T03:04:39;33.47;;;31.38;;
47519;SDS011;33252;48.122;11.538;2022-08-30T03:07:08;22.42;;;20.60;;
47519;SDS011;33252;48.122;11.538;2022-08-30T03:09:35;23.45;;;21.55;;
47519;SDS011;33252;48.122;11.538;2022-08-30T03:12:01;36.05;;;33.85;;
47519;SDS011;33252;48.122;11.538;2022-08-30T03:14:27;27.42;;;25.40;;
47519;SDS011;33252;48.122;11.538;2022-08-30T03:16:53;30.73;;;28.70;;
47519;SDS011;33252;48.122;11.538;2022-08-30T03:19:19;16.33;;;14.82;;
47519;SDS011;33252;48.122;11.538;2022-08-30T03:21:44;21.08;;;19.13;;
47519;SDS011;33252;48.122;11.538;2022-08-30T03:24:10;15.98;;;14.38;;
47519;SDS011;33252;48.122;11.538;2022-08-30T03:26:37;20.83;;;19.13;;
47519;SDS011;33252;48.122;11.538;2022-08-30T03:29:03;21.73;;;19.95;;
47519;SDS011;33252;48.122;11.538;2022-08-30T03:31:29;36.33;;;34.03;;
47519;SDS011;33252;48.122;11.538;2022-08-30T03:33:54;26.52;;;24.58;;
47519;SDS011;33252;48.122;11.538;2022-08-30T03:36:20;112.50;;;108.32;;
47519;SDS011;33252;48.122;11.538;2022-08-30T03:38:46;82.55;;;79.32;;
47519;SDS011;33252;48.122;11.538;2022-08-30T03:41:12;77.03;;;73.30;;
47519;SDS011;33252;48.122;11.538;2022-08-30T03:43:37;33.47;;;31.08;;
47519;SDS011;33252;48.122;11.538;2022-08-30T03:46:03;24.25;;;22.40;;
47519;SDS011;33252;48.122;11.538;2022-08-30T03:48:29;61.53;;;58.83;;
47519;SDS011;33252;48.122;11.538;2022-08-30T03:50:55;70.03;;;67.05;;
47519;SDS011;33252;48.122;11.538;2022-08-30T03:53:21;79.18;;;75.80;;
47519;SDS011;33252;48.122;11.538;2022-08-30T03:55:47;77.25;;;74.05;;
47519;SDS011;33252;48.122;11.538;2022-08-30T03:58:13;106.10;;;102.07;;
47519;SDS011;33252;48.122;11.538;2022-08-30T04:00:39;135.32;;;130.60;;
47519;SDS011;33252;48.122;11.538;2022-08-30T04:03:04;106.45;;;102.25;;
47519;SDS011;33252;48.122;11.538;2022-08-30T04:05:30;115.55;;;111.15;;
47519;SDS011;33252;48.122;11.538;2022-08-30T04:07:56;71.82;;;68.88;;
47519;SDS011;33252;48.122;11.538;2022-08-30T04:10:22;49.50;;;47.03;;
47519;SDS011;33252;48.122;11.538;2022-08-30T04:12:48;95.60;;;91.93;;
47519;SDS011;33252;48.122;11.538;2022-08-30T04:15:14;185.48;;;179.20;;
47519;SDS011;33252;48.122;11.538;2022-08-30T04:17:41;148.77;;;143.38;;
47519;SDS011;33252;48.122;11.538;2022-08-30T04:20:07;129.00;;;124.28;;
47519;SDS011;33252;48.122;11.538;2022-08-30T04:22:34;198.80;;;191.88;;
47519;SDS011;33252;48.122;11.538;2022-08-30T04:25:01;466.13;;;449.27;;
47519;SDS011;33252;48.122;11.538;2022-08-30T04:27:27;300.63;;;290.73;;
47519;SDS011;33252;48.122;11.538;2022-08-30T04:29:53;289.80;;;279.98;;
47519;SDS011;33252;48.122;11.538;2022-08-30T04:32:20;221.23;;;213.77;;
47519;SDS011;33252;48.122;11.538;2022-08-30T04:34:46;223.15;;;215.70;;
47519;SDS011;33252;48.122;11.538;2022-08-30T04:37:12;273.65;;;264.63;;
47519;SDS011;33252;48.122;11.538;2022-08-30T04:39:38;279.25;;;269.77;;
47519;SDS011;33252;48.122;11.538;2022-08-30T04:42:05;218.93;;;211.40;;
47519;SDS011;33252;48.122;11.538;2022-08-30T04:44:31;158.25;;;152.65;;
47519;SDS011;33252;48.122;11.538;2022-08-30T04:46:57;231.38;;;223.63;;
47519;SDS011;33252;48.122;11.538;2022-08-30T04:49:23;352.17;;;340.13;;
47519;SDS011;33252;48.122;11.538;2022-08-30T04:51:48;437.70;;;422.10;;
47519;SDS011;33252;48.122;11.538;2022-08-30T04:54:14;352.13;;;340.60;;
47519;SDS011;33252;48.122;11.538;2022-08-30T04:56:40;364.23;;;351.98;;
47519;SDS011;33252;48.122;11.538;2022-08-30T04:59:07;183.73;;;177.25;;
47519;SDS011;33252;48.122;11.538;2022-08-30T05:01:33;290.63;;;281.10;;
47519;SDS011;33252;48.122;11.538;2022-08-30T05:03:59;310.73;;;300.23;;
47519;SDS011;33252;48.122;11.538;2022-08-30T05:06:26;357.83;;;346.00;;
47519;SDS011;33252;48.122;11.538;2022-08-30T05:08:55;525.28;;;505.48;;
47519;SDS011;33252;48.122;11.538;2022-08-30T05:11:21;527.47;;;507.00;;
47519;SDS011;33252;48.122;11.538;2022-08-30T05:13:47;524.58;;;504.67;;
47519;SDS011;33252;48.122;11.538;2022-08-30T05:16:13;595.53;;;571.97;;
47519;SDS011;33252;48.122;11.538;2022-08-30T05:18:42;585.83;;;562.30;;
47519;SDS011;33252;48.122;11.538;2022-08-30T05:21:10;607.75;;;582.90;;
47519;SDS011;33252;48.122;11.538;2022-08-30T05:23:41;581.70;;;558.83;;
47519;SDS011;33252;48.122;11.538;2022-08-30T05:26:09;513.67;;;494.48;;
47519;SDS011;33252;48.122;11.538;2022-08-30T05:28:36;391.65;;;378.58;;
47519;SDS011;33252;48.122;11.538;2022-08-30T05:31:02;398.73;;;385.13;;
47519;SDS011;33252;48.122;11.538;2022-08-30T05:33:36;381.95;;;369.13;;
47519;SDS011;33252;48.122;11.538;2022-08-30T05:36:04;446.00;;;430.27;;
47519;SDS011;33252;48.122;11.538;2022-08-30T05:38:31;371.77;;;359.05;;
47519;SDS011;33252;48.122;11.538;2022-08-30T05:40:56;379.92;;;367.08;;
47519;SDS011;33252;48.122;11.538;2022-08-30T05:43:22;441.02;;;425.83;;
47519;SDS011;33252;48.122;11.538;2022-08-30T05:45:47;411.92;;;397.70;;
47519;SDS011;33252;48.122;11.538;2022-08-30T05:48:21;442.35;;;426.98;;
47519;SDS011;33252;48.122;11.538;2022-08-30T05:50:47;397.80;;;384.48;;
47519;SDS011;33252;48.122;11.538;2022-08-30T05:53:13;365.98;;;353.95;;
47519;SDS011;33252;48.122;11.538;2022-08-30T05:55:39;437.52;;;421.88;;
47519;SDS011;33252;48.122;11.538;2022-08-30T05:58:05;462.30;;;445.40;;
47519;SDS011;33252;48.122;11.538;2022-08-30T06:00:31;391.30;;;378.02;;
47519;SDS011;33252;48.122;11.538;2022-08-30T06:02:56;369.77;;;357.40;;
47519;SDS011;33252;48.122;11.538;2022-08-30T06:05:22;266.23;;;257.80;;
47519;SDS011;33252;48.122;11.538;2022-08-30T06:07:48;163.63;;;157.95;;
47519;SDS011;33252;48.122;11.538;2022-08-30T06:10:14;96.72;;;92.65;;
47519;SDS011;33252;48.122;11.538;2022-08-30T06:12:39;81.50;;;78.00;;
47519;SDS011;33252;48.122;11.538;2022-08-30T06:15:05;51.78;;;49.25;;
47519;SDS011;33252;48.122;11.538;2022-08-30T06:17:31;175.85;;;169.82;;
47519;SDS011;33252;48.122;11.538;2022-08-30T06:19:57;137.63;;;132.65;;
47519;SDS011;33252;48.122;11.538;2022-08-30T06:22:23;78.07;;;74.78;;
47519;SDS011;33252;48.122;11.538;2022-08-30T06:24:48;67.35;;;64.55;;
47519;SDS011;33252;48.122;11.538;2022-08-30T06:27:14;47.10;;;44.92;;
47519;SDS011;33252;48.122;11.538;2022-08-30T06:29:40;21.92;;;20.02;;
47519;SDS011;33252;48.122;11.538;2022-08-30T06:32:05;14.80;;;13.32;;
47519;SDS011;33252;48.122;11.538;2022-08-30T06:34:31;12.65;;;11.23;;
47519;SDS011;33252;48.122;11.538;2022-08-30T06:36:56;11.32;;;9.90;;
47519;SDS011;33252;48.122;11.538;2022-08-30T06:39:22;13.43;;;9.88;;
47519;SDS011;33252;48.122;11.538;2022-08-30T06:41:48;11.15;;;8.35;;
47519;SDS011;33252;48.122;11.538;2022-08-30T06:44:14;12.95;;;9.10;;
47519;SDS011;33252;48.122;11.538;2022-08-30T06:46:40;10.05;;;8.70;;
47519;SDS011;33252;48.122;11.538;2022-08-30T06:49:06;13.02;;;9.15;;
47519;SDS011;33252;48.122;11.538;2022-08-30T06:51:36;13.35;;;9.13;;
47519;SDS011;33252;48.122;11.538;2022-08-30T06:54:03;10.73;;;9.15;;
47519;SDS011;33252;48.122;11.538;2022-08-30T06:56:32;10.57;;;8.77;;
47519;SDS011;33252;48.122;11.538;2022-08-30T06:58:58;11.85;;;9.35;;
47519;SDS011;33252;48.122;11.538;2022-08-30T07:01:25;10.63;;;9.30;;
47519;SDS011;33252;48.122;11.538;2022-08-30T07:03:52;11.38;;;9.00;;
47519;SDS011;33252;48.122;11.538;2022-08-30T07:06:19;9.55;;;8.13;;
47519;SDS011;33252;48.122;11.538;2022-08-30T07:08:46;9.85;;;8.55;;
47519;SDS011;33252;48.122;11.538;2022-08-30T07:11:14;11.25;;;8.05;;
47519;SDS011;33252;48.122;11.538;2022-08-30T07:13:48;9.23;;;7.53;;
47519;SDS011;33252;48.122;11.538;2022-08-30T07:16:14;9.82;;;8.20;;
47519;SDS011;33252;48.122;11.538;2022-08-30T07:18:40;8.70;;;7.53;;
47519;SDS011;33252;48.122;11.538;2022-08-30T07:21:15;9.00;;;7.28;;
47519;SDS011;33252;48.122;11.538;2022-08-30T07:23:44;12.10;;;7.93;;
47519;SDS011;33252;48.122;11.538;2022-08-30T07:26:13;9.80;;;8.38;;
47519;SDS011;33252;48.122;11.538;2022-08-30T07:28:41;8.23;;;7.40;;
47519;SDS011;33252;48.122;11.538;2022-08-30T07:31:08;9.88;;;7.65;;
47519;SDS011;33252;48.122;11.538;2022-08-30T07:33:35;9.27;;;8.30;;
47519;SDS011;33252;48.122;11.538;2022-08-30T07:36:03;10.07;;;8.70;;
47519;SDS011;33252;48.122;11.538;2022-08-30T07:38:29;10.15;;;9.10;;
47519;SDS011;33252;48.122;11.538;2022-08-30T07:40:55;11.30;;;8.77;;
47519;SDS011;33252;48.122;11.538;2022-08-30T07:43:25;10.40;;;8.25;;
47519;SDS011;33252;48.122;11.538;2022-08-30T07:45:52;10.10;;;9.10;;
47519;SDS011;33252;48.122;11.538;2022-08-30T07:48:18;11.98;;;9.18;;
47519;SDS011;33252;48.122;11.538;2022-08-30T07:50:44;12.48;;;10.45;;
47519;SDS011;33252;48.122;11.538;2022-08-30T07:53:11;11.07;;;9.25;;
47519;SDS011;33252;48.122;11.538;2022-08-30T07:55:37;13.88;;;10.57;;
47519;SDS011;33252;48.122;11.538;2022-08-30T07:58:03;9.52;;;8.70;;
47519;SDS011;33252;48.122;11.538;2022-08-30T08:00:29;12.27;;;10.90;;
47519;SDS011;33252;48.122;11.538;2022-08-30T08:02:54;12.05;;;10.70;;
47519;SDS011;33252;48.122;11.538;2022-08-30T08:05:20;13.75;;;10.50;;
47519;SDS011;33252;48.122;11.538;2022-08-30T08:07:46;14.32;;;9.65;;
47519;SDS011;33252;48.122;11.538;2022-08-30T08:10:12;11.80;;;10.23;;
47519;SDS011;33252;48.122;11.538;2022-08-30T08:12:38;10.95;;;9.88;;
47519;SDS011;33252;48.122;11.538;2022-08-30T08:15:04;12.98;;;9.40;;
47519;SDS011;33252;48.122;11.538;2022-08-30T08:17:31;15.25;;;10.15;;
47519;SDS011;33252;48.122;11.538;2022-08-30T08:19:56;10.88;;;9.48;;
47519;SDS011;33252;48.122;11.538;2022-08-30T08:22:22;12.20;;;9.23;;
47519;SDS011;33252;48.122;11.538;2022-08-30T08:24:48;14.55;;;9.68;;
47519;SDS011;33252;48.122;11.538;2022-08-30T08:27:14;10.60;;;8.68;;
47519;SDS011;33252;48.122;11.538;2022-08-30T08:29:39;10.60;;;9.63;;
47519;SDS011;33252;48.122;11.538;2022-08-30T08:32:05;12.38;;;9.82;;
47519;SDS011;33252;48.122;11.538;2022-08-30T08:34:31;13.80;;;10.05;;
47519;SDS011;33252;48.122;11.538;2022-08-30T08:36:56;11.48;;;9.63;;
47519;SDS011;33252;48.122;11.538;2022-08-30T08:39:22;11.98;;;10.75;;
47519;SDS011;33252;48.122;11.538;2022-08-30T08:49:41;10.25;;;9.25;;
47519;SDS011;33252;48.122;11.538;2022-08-30T08:52:11;13.90;;;10.63;;
47519;SDS011;33252;48.122;11.538;2022-08-30T08:55:06;11.00;;;8.52;;
47519;SDS011;33252;48.122;11.538;2022-08-30T08:57:36;12.25;;;11.07;;
47519;SDS011;33252;48.122;11.538;2022-08-30T09:00:04;11.82;;;10.80;;
47519;SDS011;33252;48.122;11.538;2022-08-30T09:02:54;11.98;;;10.93;;
47519;SDS011;33252;48.122;11.538;2022-08-30T09:05:23;14.35;;;13.20;;
47519;SDS011;33252;48.122;11.538;2022-08-30T09:08:06;14.25;;;12.25;;
47519;SDS011;33252;48.122;11.538;2022-08-30T09:10:35;13.35;;;12.13;;
47519;SDS011;33252;48.122;11.538;2022-08-30T09:13:02;13.45;;;12.43;;
47519;SDS011;33252;48.122;11.538;2022-08-30T09:15:32;14.18;;;12.75;;
47519;SDS011;33252;48.122;11.538;2022-08-30T09:20:33;11.82;;;10.70;;
47519;SDS011;33252;48.122;11.538;2022-08-30T09:28:20;14.50;;;12.55;;
47519;SDS011;33252;48.122;11.538;2022-08-30T09:36:38;44.75;;;42.80;;
47519;SDS011;33252;48.122;11.538;2022-08-30T09:39:16;27.17;;;25.77;;
47519;SDS011;33252;48.122;11.538;2022-08-30T09:44:56;57.88;;;55.38;;
47519;SDS011;33252;48.122;11.538;2022-08-30T09:47:34;36.17;;;34.47;;
47519;SDS011;33252;48.122;11.538;2022-08-30T09:50:18;63.57;;;61.07;;
47519;SDS011;33252;48.122;11.538;2022-08-30T09:53:01;28.92;;;27.40;;
47519;SDS011;33252;48.122;11.538;2022-08-30T09:55:58;31.70;;;30.00;;
47519;SDS011;33252;48.122;11.538;2022-08-30T10:03:41;108.55;;;104.70;;
47519;SDS011;33252;48.122;11.538;2022-08-30T10:22:30;95.55;;;92.15;;
47519;SDS011;33252;48.122;11.538;2022-08-30T10:27:46;69.80;;;67.20;;
47519;SDS011;33252;48.122;11.538;2022-08-30T10:30:25;41.85;;;39.95;;
47519;SDS011;33252;48.122;11.538;2022-08-30T10:33:00;33.42;;;31.92;;
47519;SDS011;33252;48.122;11.538;2022-08-30T10:35:55;51.08;;;49.17;;
47519;SDS011;33252;48.122;11.538;2022-08-30T10:46:44;29.85;;;28.40;;
47519;SDS011;33252;48.122;11.538;2022-08-30T10:49:22;59.42;;;57.03;;
47519;SDS011;33252;48.122;11.538;2022-08-30T10:54:49;24.60;;;23.33;;
47519;SDS011;33252;48.122;11.538;2022-08-30T10:57:35;19.15;;;18.15;;
47519;SDS011;33252;48.122;11.538;2022-08-30T11:00:08;18.77;;;17.77;;
47519;SDS011;33252;48.122;11.538;2022-08-30T11:08:09;18.08;;;17.00;;
47519;SDS011;33252;48.122;11.538;2022-08-30T11:10:48;9.90;;;9.20;;
47519;SDS011;33252;48.122;11.538;2022-08-30T11:13:29;11.13;;;10.43;;
47519;SDS011;33252;48.122;11.538;2022-08-30T11:15:58;10.75;;;10.02;;
47519;SDS011;33252;48.122;11.538;2022-08-30T11:18:29;11.15;;;10.30;;
47519;SDS011;33252;48.122;11.538;2022-08-30T11:23:55;15.90;;;14.82;;
47519;SDS011;33252;48.122;11.538;2022-08-30T11:31:57;16.17;;;15.23;;
47519;SDS011;33252;48.122;11.538;2022-08-30T11:37:08;126.30;;;121.85;;
47519;SDS011;33252;48.122;11.538;2022-08-30T11:45:28;106.13;;;102.45;;
47519;SDS011;33252;48.122;11.538;2022-08-30T11:57:57;106.95;;;103.55;;
47519;SDS011;33252;48.122;11.538;2022-08-30T12:00:45;118.82;;;114.65;;
47519;SDS011;33252;48.122;11.538;2022-08-30T12:10:48;78.07;;;74.63;;
47519;SDS011;33252;48.122;11.538;2022-08-30T12:16:03;239.20;;;231.90;;
47519;SDS011;33252;48.122;11.538;2022-08-30T12:21:14;217.93;;;211.00;;
47519;SDS011;33252;48.122;11.538;2022-08-30T12:24:03;224.38;;;217.13;;
47519;SDS011;33252;48.122;11.538;2022-08-30T12:26:37;289.27;;;279.20;;
47519;SDS011;33252;48.122;11.538;2022-08-30T12:34:18;368.73;;;356.90;;
47519;SDS011;33252;48.122;11.538;2022-08-30T12:37:05;256.45;;;248.63;;
47519;SDS011;33252;48.122;11.538;2022-08-30T12:39:37;308.15;;;298.48;;
47519;SDS011;33252;48.122;11.538;2022-08-30T12:44:40;278.85;;;269.98;;
47519;SDS011;33252;48.122;11.538;2022-08-30T12:47:06;542.88;;;521.00;;
47519;SDS011;33252;48.122;11.538;2022-08-30T12:49:36;381.23;;;367.75;;
47519;SDS011;33252;48.122;11.538;2022-08-30T12:52:20;633.75;;;606.50;;
47519;SDS011;33252;48.122;11.538;2022-08-30T12:54:55;702.97;;;673.03;;
47519;SDS011;33252;48.122;11.538;2022-08-30T12:57:53;566.20;;;542.63;;
47519;SDS011;33252;48.122;11.538;2022-08-30T13:00:38;621.08;;;596.10;;
47519;SDS011;33252;48.122;11.538;2022-08-30T13:05:47;494.83;;;477.02;;
47519;SDS011;33252;48.122;11.538;2022-08-30T13:18:42;210.43;;;203.85;;
47519;SDS011;33252;48.122;11.538;2022-08-30T13:21:32;243.07;;;235.50;;
47519;SDS011;33252;48.122;11.538;2022-08-30T13:24:02;164.25;;;158.85;;
47519;SDS011;33252;48.122;11.538;2022-08-30T13:26:30;110.53;;;106.75;;
47519;SDS011;33252;48.122;11.538;2022-08-30T13:34:10;412.35;;;397.80;;
47519;SDS011;33252;48.122;11.538;2022-08-30T13:36:38;574.28;;;552.05;;
47519;SDS011;33252;48.122;11.538;2022-08-30T13:39:09;664.25;;;636.33;;
47519;SDS011;33252;48.122;11.538;2022-08-30T13:41:36;743.08;;;710.88;;
47519;SDS011;33252;48.122;11.538;2022-08-30T13:44:03;766.28;;;731.95;;
47519;SDS011;33252;48.122;11.538;2022-08-30T13:46:29;754.30;;;721.13;;
47519;SDS011;33252;48.122;11.538;2022-08-30T13:48:57;759.45;;;724.20;;
47519;SDS011;33252;48.122;11.538;2022-08-30T13:51:26;784.75;;;748.88;;
47519;SDS011;33252;48.122;11.538;2022-08-30T13:53:52;790.45;;;752.22;;
47519;SDS011;33252;48.122;11.538;2022-08-30T13:56:17;822.75;;;783.10;;
47519;SDS011;33252;48.122;11.538;2022-08-30T13:58:43;863.83;;;822.22;;
47519;SDS011;33252;48.122;11.538;2022-08-30T14:01:09;843.05;;;802.65;;
47519;SDS011;33252;48.122;11.538;2022-08-30T14:03:34;792.55;;;757.13;;
47519;SDS011;33252;48.122;11.538;2022-08-30T14:06:00;750.08;;;717.65;;
47519;SDS011;33252;48.122;11.538;2022-08-30T14:08:27;735.55;;;704.50;;
47519;SDS011;33252;48.122;11.538;2022-08-30T14:10:55;698.55;;;670.22;;
47519;SDS011;33252;48.122;11.538;2022-08-30T14:13:21;694.08;;;665.80;;
47519;SDS011;33252;48.122;11.538;2022-08-30T14:15:48;651.00;;;625.70;;
47519;SDS011;33252;48.122;11.538;2022-08-30T14:18:15;694.60;;;665.03;;
47519;SDS011;33252;48.122;11.538;2022-08-30T14:20:41;730.22;;;698.78;;
47519;SDS011;33252;48.122;11.538;2022-08-30T14:23:06;788.25;;;753.42;;
47519;SDS011;33252;48.122;11.538;2022-08-30T14:25:32;828.83;;;790.88;;
47519;SDS011;33252;48.122;11.538;2022-08-30T14:27:58;815.78;;;777.30;;
47519;SDS011;33252;48.122;11.538;2022-08-30T14:30:24;852.53;;;811.90;;
47519;SDS011;33252;48.122;11.538;2022-08-30T14:32:50;829.92;;;791.10;;
47519;SDS011;33252;48.122;11.538;2022-08-30T14:35:15;869.22;;;826.05;;
47519;SDS011;33252;48.122;11.538;2022-08-30T14:37:46;913.30;;;863.83;;
47519;SDS011;33252;48.122;11.538;2022-08-30T14:40:13;968.92;;;913.05;;
47519;SDS011;33252;48.122;11.538;2022-08-30T14:42:39;995.63;;;939.50;;
47519;SDS011;33252;48.122;11.538;2022-08-30T14:45:05;972.55;;;916.85;;
47519;SDS011;33252;48.122;11.538;2022-08-30T14:47:31;988.70;;;934.03;;
47519;SDS011;33252;48.122;11.538;2022-08-30T14:49:57;992.92;;;932.20;;
47519;SDS011;33252;48.122;11.538;2022-08-30T14:52:25;964.28;;;908.78;;
47519;SDS011;33252;48.122;11.538;2022-08-30T14:54:51;951.83;;;893.90;;
47519;SDS011;33252;48.122;11.538;2022-08-30T14:57:16;958.03;;;902.13;;
47519;SDS011;33252;48.122;11.538;2022-08-30T14:59:42;938.13;;;883.70;;
47519;SDS011;33252;48.122;11.538;2022-08-30T15:02:08;971.05;;;908.63;;
47519;SDS011;33252;48.122;11.538;2022-08-30T15:04:33;992.33;;;926.42;;
47519;SDS011;33252;48.122;11.538;2022-08-30T15:06:59;987.05;;;921.55;;
47519;SDS011;33252;48.122;11.538;2022-08-30T15:09:25;991.83;;;926.72;;
47519;SDS011;33252;48.122;11.538;2022-08-30T15:11:52;945.53;;;886.72;;
47519;SDS011;33252;48.122;11.538;2022-08-30T15:14:20;944.45;;;885.10;;
47519;SDS011;33252;48.122;11.538;2022-08-30T15:16:46;973.70;;;910.50;;
47519;SDS011;33252;48.122;11.538;2022-08-30T15:19:11;997.15;;;931.25;;
47519;SDS011;33252;48.122;11.538;2022-08-30T15:21:39;945.80;;;886.95;;
47519;SDS011;33252;48.122;11.538;2022-08-30T15:24:13;990.97;;;928.88;;
47519;SDS011;33252;48.122;11.538;2022-08-30T15:26:41;968.63;;;904.30;;
47519;SDS011;33252;48.122;11.538;2022-08-30T15:29:11;969.90;;;907.80;;
47519;SDS011;33252;48.122;11.538;2022-08-30T15:34:05;976.40;;;912.33;;
47519;SDS011;33252;48.122;11.538;2022-08-30T15:36:32;980.15;;;915.08;;
47519;SDS011;33252;48.122;11.538;2022-08-30T15:38:58;1032.70;;;961.95;;
47519;SDS011;33252;48.122;11.538;2022-08-30T15:41:25;1023.10;;;953.42;;
47519;SDS011;33252;48.122;11.538;2022-08-30T15:43:52;1012.13;;;944.63;;
47519;SDS011;33252;48.122;11.538;2022-08-30T15:48:46;1021.05;;;958.50;;
47519;SDS011;33252;48.122;11.538;2022-08-30T15:51:13;986.17;;;927.63;;
47519;SDS011;33252;48.122;11.538;2022-08-30T15:53:40;970.75;;;914.58;;
47519;SDS011;33252;48.122;11.538;2022-08-30T15:56:07;958.85;;;905.22;;
47519;SDS011;33252;48.122;11.538;2022-08-30T15:58:35;943.20;;;890.53;;
47519;SDS011;33252;48.122;11.538;2022-08-30T16:01:01;941.30;;;891.97;;
47519;SDS011;33252;48.122;11.538;2022-08-30T16:03:29;1027.03;;;964.55;;
47519;SDS011;33252;48.122;11.538;2022-08-30T16:05:55;1034.50;;;966.85;;
47519;SDS011;33252;48.122;11.538;2022-08-30T16:08:21;1091.10;;;999.90;;
47519;SDS011;33252;48.122;11.538;2022-08-30T16:10:47;1078.97;;;999.00;;
47519;SDS011;33252;48.122;11.538;2022-08-30T16:13:13;1082.38;;;999.90;;
47519;SDS011;33252;48.122;11.538;2022-08-30T16:15:39;1016.42;;;954.08;;
47519;SDS011;33252;48.122;11.538;2022-08-30T16:18:05;917.15;;;866.22;;
47519;SDS011;33252;48.122;11.538;2022-08-30T16:20:31;824.22;;;783.05;;
47519;SDS011;33252;48.122;11.538;2022-08-30T16:22:57;771.67;;;734.65;;
47519;SDS011;33252;48.122;11.538;2022-08-30T16:25:22;661.45;;;632.60;;